Time;durP1;ratioP1;P1;durP2;ratioP2;P2;SDS_P1;SDS_P2;PMS_P1;PMS_P2;Temp;Humidity;BMP_temperature;BMP_pressure;BME280_temperature;BME280_humidity;BME280_pressure;Samples;Min_cycle;Max_cycle;Signal;HPM_P1;HPM_P2
2022/10/23 00:01:20;;;;;;;15.63;4.42;;;;;;;20.10;58.48;101581.59;1612728;87;21188;-50
2022/10/23 00:03:55;;;;;;;18.45;5.35;;;;;;;20.11;58.57;101573.59;1607789;87;21097;-53
2022/10/23 00:06:22;;;;;;;10.30;3.75;;;;;;;20.12;58.65;101571.81;1500084;93;21118;-56
2022/10/23 00:08:49;;;;;;;15.35;5.15;;;;;;;20.12;58.68;101563.88;1500674;93;21120;-57
2022/10/23 00:11:19;;;;;;;14.63;4.70;;;;;;;20.13;58.75;101556.36;1500302;93;21092;-50
2022/10/23 00:13:46;;;;;;;13.73;4.23;;;;;;;20.12;58.76;101556.81;1478294;94;21657;-50
2022/10/23 00:16:15;;;;;;;17.67;4.33;;;;;;;20.12;58.82;101548.03;1477044;94;21572;-54
2022/10/23 00:18:41;;;;;;;12.53;4.50;;;;;;;20.14;58.80;101550.12;1476661;96;21112;-50
2022/10/23 00:21:09;;;;;;;16.20;4.83;;;;;;;20.14;58.77;101540.88;1474081;96;21568;-53
2022/10/23 00:23:37;;;;;;;18.35;5.33;;;;;;;20.15;58.79;101535.52;1472934;96;21631;-51
2022/10/23 00:26:04;;;;;;;15.65;5.03;;;;;;;20.15;58.85;101534.68;1481979;96;21076;-50
2022/10/23 00:28:31;;;;;;;14.40;4.65;;;;;;;20.16;58.91;101537.70;1513328;93;21095;-57
2022/10/23 00:31:04;;;;;;;14.28;4.25;;;;;;;20.15;58.93;101531.55;1530904;93;21520;-52
2022/10/23 00:33:31;;;;;;;15.75;4.35;;;;;;;20.15;58.93;101532.04;1530965;93;21082;-50
2022/10/23 00:35:57;;;;;;;15.15;4.37;;;;;;;20.15;58.99;101530.72;1525777;92;21038;-54
2022/10/23 00:38:24;;;;;;;18.70;4.12;;;;;;;20.15;59.04;101526.75;1527231;93;21056;-50
2022/10/23 00:40:51;;;;;;;16.42;4.50;;;;;;;20.16;59.08;101519.20;1502751;93;21152;-54
2022/10/23 00:43:22;;;;;;;14.15;4.45;;;;;;;20.15;59.10;101510.41;1501126;94;21094;-53
2022/10/23 00:45:48;;;;;;;13.58;3.80;;;;;;;20.17;59.17;101510.36;1456040;98;21142;-54
2022/10/23 00:48:16;;;;;;;14.98;4.60;;;;;;;20.17;59.19;101518.28;1457214;98;21174;-51
2022/10/23 00:50:44;;;;;;;16.67;4.78;;;;;;;20.17;59.32;101519.61;1456328;98;21167;-51
2022/10/23 00:53:11;;;;;;;13.60;3.70;;;;;;;20.16;59.31;101516.10;1457486;98;21625;-57
2022/10/23 00:55:40;;;;;;;15.08;4.33;;;;;;;20.18;59.42;101516.02;1457883;98;21137;-56
2022/10/23 00:58:06;;;;;;;17.77;5.17;;;;;;;20.17;59.47;101501.94;1458402;98;21577;-50
2022/10/23 01:00:53;;;;;;;16.97;5.00;;;;;;;20.17;59.53;101497.15;1456717;98;21132;-52
2022/10/23 01:03:24;;;;;;;16.80;4.35;;;;;;;20.18;59.57;101492.23;1451849;97;21110;-56
2022/10/23 01:06:19;;;;;;;17.00;4.05;;;;;;;20.19;59.66;101474.14;1444636;99;21219;-52
2022/10/23 01:09:00;;;;;;;15.88;4.53;;;;;;;20.19;59.73;101463.58;1446972;98;21108;-51
2022/10/23 01:11:34;;;;;;;16.48;5.25;;;;;;;20.19;59.82;101462.25;1450118;97;21099;-52
2022/10/23 01:14:18;;;;;;;14.05;4.35;;;;;;;20.19;59.91;101455.64;1405110;101;21669;-51
2022/10/23 01:17:19;;;;;;;17.55;4.35;;;;;;;20.19;60.00;101449.04;1406009;102;21162;-55
2022/10/23 01:20:09;;;;;;;14.45;3.85;;;;;;;20.18;60.14;101439.38;1372499;103;21212;-52
2022/10/23 01:23:13;;;;;;;15.28;4.67;;;;;;;20.18;60.28;101444.67;1362762;105;21163;-53
2022/10/23 01:26:08;;;;;;;16.25;4.30;;;;;;;20.17;60.34;101446.94;1362663;105;21172;-50
2022/10/23 01:29:08;;;;;;;10.85;4.03;;;;;;;20.17;60.41;101440.34;1360383;105;21170;-51
2022/10/23 01:31:57;;;;;;;15.63;4.50;;;;;;;20.18;60.53;101442.03;1364642;105;21239;-51
2022/10/23 01:34:33;;;;;;;14.00;4.30;;;;;;;20.18;60.60;101442.03;1345946;106;21118;-51
2022/10/23 01:37:00;;;;;;;20.88;6.25;;;;;;;20.18;60.62;101445.99;1363021;103;21122;-54
2022/10/23 01:39:32;;;;;;;18.75;5.37;;;;;;;20.17;60.68;101432.41;1349415;104;21742;-53
2022/10/23 01:42:04;;;;;;;19.25;5.67;;;;;;;20.18;60.76;101432.78;1335500;106;21607;-54
2022/10/23 01:44:35;;;;;;;15.93;3.85;;;;;;;20.17;60.82;101427.13;1345542;105;21189;-53
2022/10/23 01:47:03;;;;;;;17.20;4.87;;;;;;;20.17;60.86;101421.84;1336078;106;21161;-51
2022/10/23 01:49:32;;;;;;;13.60;4.10;;;;;;;20.18;60.91;101415.60;1356247;103;21199;-51
2022/10/23 01:52:00;;;;;;;18.20;5.65;;;;;;;20.19;60.91;101414.69;1387128;103;21174;-54
2022/10/23 01:54:33;;;;;;;18.23;4.75;;;;;;;20.19;60.93;101413.36;1423302;97;21117;-51
2022/10/23 01:56:59;;;;;;;18.05;5.03;;;;;;;20.19;60.98;101406.76;1447628;97;21073;-51
2022/10/23 01:59:34;;;;;;;15.25;4.30;;;;;;;20.18;60.96;101392.69;1460944;96;21116;-52
2022/10/23 02:02:02;;;;;;;13.20;4.60;;;;;;;20.19;60.99;101401.05;1488466;95;21548;-50
2022/10/23 02:04:37;;;;;;;13.50;4.17;;;;;;;20.20;60.99;101395.27;1488782;95;21137;-51
2022/10/23 02:07:05;;;;;;;18.15;5.35;;;;;;;20.20;61.05;101393.95;1470771;96;21558;-56
2022/10/23 02:09:33;;;;;;;19.23;4.85;;;;;;;20.20;61.05;101400.09;1470496;96;21204;-52
2022/10/23 02:12:11;;;;;;;14.68;4.87;;;;;;;20.21;61.06;101410.20;1521424;91;21587;-56
2022/10/23 02:14:52;;;;;;;19.77;4.47;;;;;;;20.21;61.03;101407.56;1546528;92;21096;-52
2022/10/23 02:17:58;;;;;;;15.32;5.00;;;;;;;20.21;61.10;101410.20;1548126;91;21160;-52
2022/10/23 02:20:40;;;;;;;13.95;4.47;;;;;;;20.21;61.18;101399.64;1541957;91;21108;-50
2022/10/23 02:23:27;;;;;;;14.68;4.22;;;;;;;20.22;61.16;101406.62;1543674;91;21124;-50
2022/10/23 02:26:07;;;;;;;14.05;4.25;;;;;;;20.21;61.23;101403.61;1547718;91;21091;-51
2022/10/23 02:28:39;;;;;;;14.90;4.12;;;;;;;20.23;61.23;101397.77;1569602;90;21578;-50
2022/10/23 02:31:05;;;;;;;13.18;4.05;;;;;;;20.23;61.24;101396.45;1531296;92;21555;-56
2022/10/23 02:33:34;;;;;;;16.10;5.20;;;;;;;20.24;61.22;101398.14;1531376;92;21575;-51
2022/10/23 02:36:01;;;;;;;12.33;4.62;;;;;;;20.25;61.20;101402.52;1511176;93;21114;-55
2022/10/23 02:38:39;;;;;;;9.83;4.72;;;;;;;20.26;61.20;101397.59;1512588;93;21090;-53
2022/10/23 02:41:37;;;;;;;19.23;4.28;;;;;;;20.26;61.26;101391.85;1534499;92;21571;-49
2022/10/23 02:44:11;;;;;;;19.85;4.90;;;;;;;20.30;61.28;101400.96;1563373;90;21158;-50
2022/10/23 02:46:58;;;;;;;19.82;4.97;;;;;;;20.30;61.29;101401.79;1543522;91;21094;-50
2022/10/23 02:49:43;;;;;;;13.45;5.72;;;;;;;20.31;61.34;101407.48;1543509;91;21289;-51
2022/10/23 02:52:22;;;;;;;13.22;5.15;;;;;;;20.30;61.31;101416.33;1553688;91;21586;-56
2022/10/23 02:55:15;;;;;;;12.82;4.33;;;;;;;20.32;61.29;101425.52;1462731;97;21089;-51
2022/10/23 02:58:04;;;;;;;26.45;6.40;;;;;;;20.34;61.25;101420.52;1460991;97;21145;-54
2022/10/23 03:00:32;;;;;;;19.67;5.97;;;;;;;20.33;61.22;101429.40;1462879;97;21077;-51
2022/10/23 03:03:09;;;;;;;18.50;5.70;;;;;;;20.34;61.29;101441.66;1459884;97;21141;-53
2022/10/23 03:05:38;;;;;;;16.05;5.00;;;;;;;20.35;61.24;101452.64;1444572;98;21108;-53
2022/10/23 03:08:08;;;;;;;21.50;5.10;;;;;;;20.37;61.26;101458.70;1444399;98;21204;-49
2022/10/23 03:10:36;;;;;;;14.43;4.80;;;;;;;20.37;61.23;101460.03;1418832;100;21132;-49
2022/10/23 03:13:04;;;;;;;10.08;3.92;;;;;;;20.39;61.21;101460.80;1419447;100;21140;-50
2022/10/23 03:15:33;;;;;;;9.78;3.98;;;;;;;20.40;61.19;101469.14;1417184;100;21141;-52
2022/10/23 03:18:00;;;;;;;14.00;3.87;;;;;;;20.41;61.04;101473.48;1419482;101;21160;-50
2022/10/23 03:20:28;;;;;;;14.80;4.80;;;;;;;20.41;60.92;101465.55;1419538;100;21217;-51
2022/10/23 03:22:54;;;;;;;11.80;4.33;;;;;;;20.43;60.82;101476.03;1419642;100;21141;-52
2022/10/23 03:25:21;;;;;;;14.78;4.67;;;;;;;20.41;60.69;101482.73;1438833;98;21574;-50
2022/10/23 03:27:47;;;;;;;7.67;3.75;;;;;;;20.41;60.63;101490.66;1431604;98;21203;-51
2022/10/23 03:30:15;;;;;;;9.63;3.87;;;;;;;20.41;60.59;101484.05;1464060;95;21175;-52
2022/10/23 03:32:42;;;;;;;12.03;4.05;;;;;;;20.41;60.48;101485.37;1478743;96;21155;-51
2022/10/23 03:35:09;;;;;;;12.55;4.30;;;;;;;20.41;60.50;101484.05;1478967;95;21127;-51
2022/10/23 03:37:37;;;;;;;11.10;3.92;;;;;;;20.41;60.52;101481.41;1478941;95;21094;-52
2022/10/23 03:40:04;;;;;;;10.38;3.52;;;;;;;20.41;60.50;101487.15;1476401;95;21107;-53
2022/10/23 03:42:33;;;;;;;11.28;4.28;;;;;;;20.41;60.44;101493.30;1471929;95;21103;-52
2022/10/23 03:45:00;;;;;;;11.88;4.12;;;;;;;20.41;60.42;101497.27;1471635;96;21080;-51
2022/10/23 03:47:29;;;;;;;6.92;3.47;;;;;;;20.42;60.48;101491.52;1494268;93;21124;-51
2022/10/23 03:49:57;;;;;;;7.90;3.08;;;;;;;20.40;60.43;101485.00;1536571;92;21100;-57
2022/10/23 03:52:24;;;;;;;13.50;4.08;;;;;;;20.41;60.49;101488.02;1596815;88;21580;-51
2022/10/23 03:54:51;;;;;;;9.23;3.62;;;;;;;20.41;60.46;101480.55;1610385;87;21533;-55
2022/10/23 03:57:18;;;;;;;9.53;3.95;;;;;;;20.41;60.45;101478.77;1610954;89;21136;-52
2022/10/23 03:59:45;;;;;;;11.25;3.62;;;;;;;20.41;60.29;101468.19;1610042;88;21038;-52
2022/10/23 04:02:11;;;;;;;10.03;4.25;;;;;;;20.40;60.08;101471.78;1610208;87;21521;-49
2022/10/23 04:04:38;;;;;;;10.35;4.00;;;;;;;20.40;59.88;101477.06;1609994;87;21032;-52
2022/10/23 04:07:06;;;;;;;10.90;4.42;;;;;;;20.39;59.71;101474.02;1652643;83;20999;-55
2022/10/23 04:09:33;;;;;;;11.28;4.58;;;;;;;20.39;59.36;101480.63;1704672;82;21504;-53
2022/10/23 04:11:59;;;;;;;9.95;4.25;;;;;;;20.38;59.16;101486.00;1705544;82;21082;-55
2022/10/23 04:14:29;;;;;;;8.75;4.22;;;;;;;20.38;59.01;101492.12;1701080;82;21038;-51
2022/10/23 04:16:58;;;;;;;9.80;3.65;;;;;;;20.37;58.73;101487.78;1704402;82;21527;-51
2022/10/23 04:19:27;;;;;;;7.95;3.85;;;;;;;20.35;58.43;101487.00;1694212;83;21102;-50
2022/10/23 04:21:56;;;;;;;8.00;4.33;;;;;;;20.34;58.35;101480.48;1708849;82;21042;-49
2022/10/23 04:24:24;;;;;;;9.35;4.90;;;;;;;20.32;58.15;101477.06;1694168;82;21121;-52
2022/10/23 04:26:52;;;;;;;7.85;3.80;;;;;;;20.30;57.98;101470.51;1706751;82;21530;-54
2022/10/23 04:29:23;;;;;;;7.47;3.62;;;;;;;20.28;57.96;101471.05;1707485;83;21582;-57
2022/10/23 04:31:50;;;;;;;5.92;3.47;;;;;;;20.26;57.74;101461.03;1703196;83;21003;-53
2022/10/23 04:34:18;;;;;;;5.67;3.92;;;;;;;20.24;57.55;101454.96;1710439;82;21034;-51
2022/10/23 04:36:44;;;;;;;6.72;3.90;;;;;;;20.21;57.41;101452.03;1707273;82;21077;-50
2022/10/23 04:39:13;;;;;;;6.45;4.45;;;;;;;20.20;57.33;101446.80;1704699;82;21014;-54
2022/10/23 04:41:41;;;;;;;6.55;4.45;;;;;;;20.18;57.27;101457.88;1705306;82;21070;-56
2022/10/23 04:44:07;;;;;;;10.00;5.22;;;;;;;20.16;57.20;101459.75;1705311;82;21077;-51
2022/10/23 04:46:36;;;;;;;13.20;5.35;;;;;;;20.13;57.08;101457.28;1705437;82;21565;-49
2022/10/23 04:49:04;;;;;;;9.20;4.97;;;;;;;20.10;57.09;101466.66;1705810;82;21519;-50
2022/10/23 04:51:49;;;;;;;9.13;5.22;;;;;;;20.08;57.13;101468.52;1707850;82;21054;-54
2022/10/23 04:54:38;;;;;;;10.20;5.25;;;;;;;20.05;57.04;101475.30;1708376;82;21030;-50
2022/10/23 04:57:13;;;;;;;8.33;5.03;;;;;;;20.02;57.02;101472.80;1672047;84;21040;-51
2022/10/23 04:59:41;;;;;;;7.53;5.15;;;;;;;19.99;56.97;101470.32;1630266;86;21078;-56
2022/10/23 05:02:09;;;;;;;9.30;5.40;;;;;;;19.96;56.93;101470.45;1641840;86;21091;-51
2022/10/23 05:04:38;;;;;;;8.53;5.37;;;;;;;19.92;56.75;101468.44;1605164;88;21080;-52
2022/10/23 05:07:06;;;;;;;9.10;6.28;;;;;;;19.90;56.70;101470.76;1562729;91;21092;-49
2022/10/23 05:09:39;;;;;;;9.40;6.05;;;;;;;19.86;56.73;101473.16;1475041;96;21070;-52
2022/10/23 05:12:12;;;;;;;9.18;6.12;;;;;;;19.83;56.70;101486.50;1472609;97;21145;-51
2022/10/23 05:14:39;;;;;;;8.28;5.28;;;;;;;19.80;56.72;101490.17;1475111;97;21131;-53
2022/10/23 05:17:15;;;;;;;8.53;6.08;;;;;;;19.77;56.76;101493.40;1470585;97;21186;-51
2022/10/23 05:19:46;;;;;;;7.35;6.22;;;;;;;19.75;56.56;101496.58;1475538;97;21105;-51
2022/10/23 05:22:13;;;;;;;8.55;5.87;;;;;;;19.71;56.38;101499.84;1475571;97;21154;-51
2022/10/23 05:24:48;;;;;;;9.68;6.17;;;;;;;19.69;56.35;101496.88;1474892;97;21113;-52
2022/10/23 05:27:17;;;;;;;6.87;5.67;;;;;;;19.66;56.30;101502.31;1475207;97;21082;-54
2022/10/23 05:29:45;;;;;;;9.23;5.78;;;;;;;19.63;56.30;101494.52;1475371;97;21550;-52
2022/10/23 05:32:13;;;;;;;10.45;5.97;;;;;;;19.61;56.19;101493.28;1470690;97;21090;-50
2022/10/23 05:34:40;;;;;;;7.33;5.97;;;;;;;19.60;56.24;101482.81;1477553;96;21119;-52
2022/10/23 05:37:10;;;;;;;7.35;5.95;;;;;;;19.59;56.24;101486.36;1491317;94;21140;-51
2022/10/23 05:39:39;;;;;;;9.60;6.50;;;;;;;19.55;56.21;101490.08;1466330;97;21093;-56
2022/10/23 05:42:08;;;;;;;8.83;5.97;;;;;;;19.56;56.21;101497.08;1499476;94;21747;-52
2022/10/23 05:44:35;;;;;;;7.50;5.78;;;;;;;19.52;56.27;101512.19;1531557;90;21171;-51
2022/10/23 05:47:10;;;;;;;13.10;5.80;;;;;;;19.52;56.24;101513.96;1616935;84;21063;-52
2022/10/23 05:49:43;;;;;;;6.42;5.65;;;;;;;19.48;56.07;101514.13;1706473;82;21014;-50
2022/10/23 05:52:29;;;;;;;9.70;5.50;;;;;;;19.44;56.00;101512.55;1642244;87;21069;-57
2022/10/23 05:55:14;;;;;;;8.40;5.00;;;;;;;19.42;56.06;101510.91;1641410;87;21052;-52
2022/10/23 05:57:42;;;;;;;9.03;5.70;;;;;;;19.39;56.19;101514.53;1638575;87;21479;-52
2022/10/23 06:00:13;;;;;;;7.85;5.10;;;;;;;19.37;56.37;101513.75;1641593;87;21095;-51
2022/10/23 06:02:42;;;;;;;7.53;5.45;;;;;;;19.36;56.50;101517.33;1642247;87;21073;-51
2022/10/23 06:05:15;;;;;;;6.22;5.45;;;;;;;19.35;56.59;101520.88;1633593;87;20999;-51
2022/10/23 06:07:58;;;;;;;11.65;5.70;;;;;;;19.33;56.52;101530.65;1638377;87;21518;-53
2022/10/23 06:10:26;;;;;;;7.85;5.60;;;;;;;19.30;56.75;101526.81;1639684;87;21071;-51
2022/10/23 06:12:54;;;;;;;6.28;5.03;;;;;;;19.29;56.88;101526.41;1630826;87;21059;-55
2022/10/23 06:15:21;;;;;;;6.65;5.35;;;;;;;19.28;56.98;101522.07;1641668;87;21019;-51
2022/10/23 06:18:03;;;;;;;13.08;5.85;;;;;;;19.27;57.17;101515.52;1641425;87;21015;-53
2022/10/23 06:20:36;;;;;;;7.12;5.30;;;;;;;19.26;57.31;101516.01;1598436;89;21108;-55
2022/10/23 06:23:05;;;;;;;8.88;5.65;;;;;;;19.27;57.31;101528.71;1588302;89;21167;-51
2022/10/23 06:25:36;;;;;;;7.28;5.90;;;;;;;19.26;57.38;101535.80;1539815;93;21568;-51
2022/10/23 06:28:04;;;;;;;10.85;8.10;;;;;;;19.25;57.44;101540.66;1520224;94;21142;-51
2022/10/23 06:30:31;;;;;;;7.60;5.58;;;;;;;19.26;57.42;101551.63;1520508;94;21637;-51
2022/10/23 06:32:59;;;;;;;7.80;5.72;;;;;;;19.24;57.49;101544.25;1519928;94;21570;-52
2022/10/23 06:35:25;;;;;;;8.00;5.35;;;;;;;19.24;57.53;101555.25;1520267;94;21620;-54
2022/10/23 06:37:52;;;;;;;7.55;5.87;;;;;;;19.23;57.69;101554.84;1520654;94;21101;-51
2022/10/23 06:40:21;;;;;;;8.75;5.20;;;;;;;19.23;57.71;101557.48;1517074;94;21070;-50
2022/10/23 06:42:54;;;;;;;7.87;5.85;;;;;;;19.23;57.76;101558.34;1495616;95;21084;-51
2022/10/23 06:45:29;;;;;;;10.45;5.90;;;;;;;19.24;57.82;101560.08;1494901;95;21113;-52
2022/10/23 06:47:59;;;;;;;8.50;5.70;;;;;;;19.26;57.78;101566.14;1515040;94;21137;-51
2022/10/23 06:50:35;;;;;;;8.73;5.40;;;;;;;19.26;57.69;101566.14;1529092;93;21191;-51
2022/10/23 06:53:05;;;;;;;8.63;6.20;;;;;;;19.26;57.70;101560.87;1529485;94;21070;-51
2022/10/23 06:55:31;;;;;;;9.48;5.72;;;;;;;19.27;57.65;101560.38;1510248;94;21066;-51
2022/10/23 06:57:58;;;;;;;9.45;6.45;;;;;;;19.27;57.76;101566.97;1529301;94;21094;-55
2022/10/23 07:00:25;;;;;;;7.85;5.30;;;;;;;19.27;57.59;101562.56;1529207;94;21586;-56
2022/10/23 07:02:51;;;;;;;6.40;5.80;;;;;;;19.26;57.59;101564.83;1498970;94;21086;-52
2022/10/23 07:05:20;;;;;;;11.35;6.35;;;;;;;19.25;57.67;101557.81;1473884;97;21089;-55
2022/10/23 07:07:47;;;;;;;9.38;6.12;;;;;;;19.26;57.57;101556.91;1473608;96;21613;-50
2022/10/23 07:10:16;;;;;;;8.75;5.42;;;;;;;19.26;57.75;101555.59;1473706;97;21115;-51
2022/10/23 07:12:47;;;;;;;6.80;5.87;;;;;;;19.29;57.85;101554.11;1473786;97;21071;-53
2022/10/23 07:15:34;;;;;;;8.23;5.90;;;;;;;19.33;57.81;101558.81;1470006;97;21074;-51
2022/10/23 07:18:01;;;;;;;7.12;6.08;;;;;;;19.37;57.79;101556.46;1552121;89;21073;-50
2022/10/23 07:20:30;;;;;;;9.53;6.58;;;;;;;19.40;57.67;101562.45;1624087;86;21079;-51
2022/10/23 07:22:56;;;;;;;9.20;6.45;;;;;;;19.43;57.48;101555.69;1650285;86;21055;-50
2022/10/23 07:25:25;;;;;;;9.60;7.03;;;;;;;19.44;57.12;101557.42;1641313;85;21532;-50
2022/10/23 07:27:54;;;;;;;8.60;6.55;;;;;;;19.44;57.16;101554.78;1650380;85;21071;-53
2022/10/23 07:30:21;;;;;;;7.58;6.28;;;;;;;19.46;57.09;101559.53;1671611;84;21097;-55
2022/10/23 07:32:50;;;;;;;8.60;5.92;;;;;;;19.45;57.10;101564.40;1661387;84;21050;-57
2022/10/23 07:35:35;;;;;;;7.65;6.05;;;;;;;19.45;57.01;101552.52;1671377;84;21505;-50
2022/10/23 07:38:06;;;;;;;;;;;;;;;19.45;57.01;101551.20;1666211;84;21097;-50
2022/10/23 07:40:35;;;;;;;7.62;5.70;;;;;;;19.44;56.89;101546.86;1667290;84;20130;-50
2022/10/23 07:43:02;;;;;;;10.35;6.28;;;;;;;19.41;57.08;101541.70;1671990;84;21072;-50
2022/10/23 07:45:30;;;;;;;8.88;6.33;;;;;;;19.42;57.30;101542.13;1661254;84;21063;-51
2022/10/23 07:47:58;;;;;;;10.08;7.25;;;;;;;19.45;57.17;101539.81;1658206;86;21054;-51
2022/10/23 07:50:27;;;;;;;9.25;6.28;;;;;;;19.48;57.25;101537.88;1646794;84;21070;-52
2022/10/23 07:52:53;;;;;;;7.70;6.35;;;;;;;19.52;57.14;101540.36;1656736;84;21535;-52
2022/10/23 07:55:22;;;;;;;8.33;6.55;;;;;;;19.54;57.19;101539.37;1657765;84;21526;-52
2022/10/23 07:57:51;;;;;;;7.70;6.80;;;;;;;19.58;57.34;101540.10;1657165;85;21057;-51
2022/10/23 08:00:24;;;;;;;8.65;6.60;;;;;;;19.62;57.42;101536.39;1657621;86;21522;-51
2022/10/23 08:02:53;;;;;;;8.45;7.60;;;;;;;19.65;57.54;101536.23;1710465;83;21123;-51
2022/10/23 08:05:19;;;;;;;10.53;6.72;;;;;;;19.69;57.66;101535.16;1711443;82;21524;-52
2022/10/23 08:07:48;;;;;;;9.40;6.45;;;;;;;19.74;57.78;101535.81;1711545;82;21063;-50
2022/10/23 08:10:17;;;;;;;12.78;7.80;;;;;;;19.81;57.96;101531.94;1711405;82;21733;-51
2022/10/23 08:12:45;;;;;;;9.33;7.25;;;;;;;19.87;58.00;101529.86;1711706;82;21043;-51
2022/10/23 08:15:14;;;;;;;9.83;7.70;;;;;;;19.95;58.02;101534.31;1711455;82;21524;-51
2022/10/23 08:17:53;;;;;;;9.98;7.45;;;;;;;20.03;58.45;101535.28;1711438;82;21052;-54
2022/10/23 08:20:24;;;;;;;8.03;7.00;;;;;;;20.14;58.76;101538.24;1711820;83;21048;-55
2022/10/23 08:22:52;;;;;;;8.65;6.70;;;;;;;20.23;58.60;101536.52;1711643;82;21083;-50
2022/10/23 08:25:21;;;;;;;9.30;6.62;;;;;;;20.29;58.29;101537.53;1711384;82;21044;-52
2022/10/23 08:27:48;;;;;;;8.10;6.80;;;;;;;20.33;58.21;101538.23;1711717;82;21130;-51
2022/10/23 08:30:15;;;;;;;8.88;7.37;;;;;;;20.37;58.35;101545.94;1711407;82;21052;-50
2022/10/23 08:32:44;;;;;;;8.68;7.75;;;;;;;20.41;58.29;101552.78;1711317;82;21017;-53
2022/10/23 08:35:12;;;;;;;9.83;8.03;;;;;;;20.48;58.26;101555.52;1711540;82;21044;-53
2022/10/23 08:37:39;;;;;;;9.08;8.15;;;;;;;20.56;58.50;101557.31;1705301;82;21064;-52
2022/10/23 08:40:14;;;;;;;11.48;9.13;;;;;;;20.67;58.03;101570.83;1708884;82;21024;-53
2022/10/23 08:43:15;;;;;;;11.38;8.93;;;;;;;20.77;57.48;101585.78;1697058;83;21077;-51
2022/10/23 08:45:55;;;;;;;12.13;8.58;;;;;;;20.88;56.57;101592.23;1673992;84;21520;-51
2022/10/23 08:48:40;;;;;;;9.55;8.65;;;;;;;20.93;55.80;101582.28;1581682;90;21129;-56
2022/10/23 08:51:20;;;;;;;12.75;9.08;;;;;;;20.91;55.04;101582.83;1582150;90;21146;-52
2022/10/23 08:53:54;;;;;;;11.55;8.75;;;;;;;20.89;55.24;101592.63;1579670;90;21055;-50
2022/10/23 08:56:29;;;;;;;10.30;9.00;;;;;;;20.88;54.74;101593.55;1580224;90;21090;-51
2022/10/23 08:59:04;;;;;;;11.78;9.23;;;;;;;20.87;54.49;101598.47;1491546;96;21088;-50
2022/10/23 09:01:54;;;;;;;10.45;9.25;;;;;;;20.87;53.71;101613.02;1453015;97;21658;-56
2022/10/23 09:04:21;;;;;;;10.55;9.25;;;;;;;20.83;53.58;101610.14;1453169;97;21169;-50
2022/10/23 09:07:16;;;;;;;9.88;8.68;;;;;;;20.77;53.18;101605.13;1453284;97;21128;-52
2022/10/23 09:10:31;;;;;;;10.20;9.13;;;;;;;20.72;53.56;101611.14;1453116;97;21335;-51
2022/10/23 09:13:05;;;;;;;12.53;9.25;;;;;;;20.74;53.87;101619.85;1453189;97;21645;-51
2022/10/23 09:15:36;;;;;;;12.13;9.28;;;;;;;20.82;53.40;101620.31;1451590;97;21130;-52
2022/10/23 09:18:16;;;;;;;10.08;9.08;;;;;;;20.83;53.35;101615.44;1453314;97;21144;-51
2022/10/23 09:20:45;;;;;;;9.85;8.70;;;;;;;20.86;53.60;101623.20;1423190;97;21192;-52
2022/10/23 09:23:15;;;;;;;13.68;9.05;;;;;;;20.92;53.67;101625.53;1413189;100;21122;-53
2022/10/23 09:25:42;;;;;;;10.60;9.08;;;;;;;20.98;53.24;101617.73;1455910;93;21189;-53
2022/10/23 09:28:23;;;;;;;9.45;8.40;;;;;;;21.00;52.80;101619.38;1508085;94;21079;-51
2022/10/23 09:30:51;;;;;;;11.12;8.58;;;;;;;21.02;52.67;101617.54;1507919;95;21127;-51
2022/10/23 09:33:24;;;;;;;10.08;8.18;;;;;;;21.04;52.58;101619.64;1507695;93;21688;-51
2022/10/23 09:36:06;;;;;;;10.75;8.53;;;;;;;21.01;51.85;101625.08;1507742;93;21059;-51
2022/10/23 09:38:46;;;;;;;11.18;8.55;;;;;;;20.96;51.80;101631.05;1507771;93;21063;-54
2022/10/23 09:41:35;;;;;;;11.95;8.85;;;;;;;20.96;51.67;101628.87;1507623;93;21084;-51
2022/10/23 09:44:16;;;;;;;11.45;8.28;;;;;;;20.94;51.46;101635.57;1507824;93;21035;-55
2022/10/23 09:46:54;;;;;;;9.50;7.42;;;;;;;20.89;51.37;101634.97;1507552;93;21123;-51
2022/10/23 09:49:24;;;;;;;8.80;7.40;;;;;;;20.84;51.41;101631.68;1524230;92;21561;-51
2022/10/23 09:52:15;;;;;;;10.53;7.25;;;;;;;20.76;50.77;101632.53;1542260;92;21712;-53
2022/10/23 09:54:52;;;;;;;8.65;7.72;;;;;;;20.69;50.81;101631.11;1542657;92;21478;-54
2022/10/23 09:57:37;;;;;;;8.35;7.33;;;;;;;20.62;50.75;101642.94;1560016;87;21061;-50
2022/10/23 10:00:17;;;;;;;8.80;7.67;;;;;;;20.59;51.13;101636.92;1635394;87;21116;-51
2022/10/23 10:02:58;;;;;;;8.73;7.45;;;;;;;20.57;51.22;101642.30;1635198;87;21055;-50
2022/10/23 10:05:37;;;;;;;9.15;7.83;;;;;;;20.54;51.53;101646.44;1570176;90;21094;-50
2022/10/23 10:08:30;;;;;;;10.82;8.00;;;;;;;20.52;51.35;101637.72;1558473;91;21082;-51
2022/10/23 10:11:11;;;;;;;10.28;8.10;;;;;;;20.49;51.33;101644.47;1565906;90;21094;-50
2022/10/23 10:13:49;;;;;;;9.43;8.25;;;;;;;20.44;51.38;101644.30;1559843;91;21082;-53
2022/10/23 10:16:45;;;;;;;9.78;8.30;;;;;;;20.36;51.69;101636.72;1565207;91;21129;-51
2022/10/23 10:19:43;;;;;;;10.20;8.60;;;;;;;20.34;51.79;101647.84;1499168;95;21118;-57
2022/10/23 10:22:32;;;;;;;8.68;7.78;;;;;;;20.25;51.92;101637.27;1506558;95;21104;-50
2022/10/23 10:25:13;;;;;;;9.13;8.25;;;;;;;20.19;51.86;101647.23;1495200;95;21081;-53
2022/10/23 10:28:09;;;;;;;11.85;9.28;;;;;;;20.08;52.33;101633.66;1500300;95;21589;-49
2022/10/23 10:31:13;;;;;;;9.68;8.50;;;;;;;20.03;52.66;101637.83;1420633;100;21163;-54
2022/10/23 10:33:52;;;;;;;9.53;8.53;;;;;;;19.99;53.17;101638.08;1418245;100;21124;-49
2022/10/23 10:36:47;;;;;;;8.08;7.28;;;;;;;19.96;53.15;101635.10;1410921;100;21185;-50
2022/10/23 10:39:28;;;;;;;9.23;8.03;;;;;;;19.93;52.65;101638.33;1422174;100;21160;-52
2022/10/23 10:42:09;;;;;;;9.05;7.42;;;;;;;19.91;52.42;101638.86;1427719;98;21658;-54
2022/10/23 10:45:18;;;;;;;10.03;7.47;;;;;;;19.90;52.32;101637.16;1446897;99;21595;-49
2022/10/23 10:48:25;;;;;;;8.68;7.30;;;;;;;19.88;52.20;101636.38;1438013;99;21117;-52
2022/10/23 10:51:19;;;;;;;8.40;7.47;;;;;;;19.83;52.37;101640.55;1397772;103;21158;-51
2022/10/23 10:54:17;;;;;;;8.80;7.70;;;;;;;19.78;52.45;101641.69;1403998;102;21122;-51
2022/10/23 10:56:45;;;;;;;9.35;8.33;;;;;;;19.73;52.77;101644.99;1453907;97;21093;-53
2022/10/23 10:59:19;;;;;;;9.60;7.83;;;;;;;19.69;53.05;101638.14;1476462;97;21100;-51
2022/10/23 11:02:02;;;;;;;8.88;7.97;;;;;;;19.66;53.23;101635.66;1476445;97;21089;-52
2022/10/23 11:04:54;;;;;;;8.18;7.22;;;;;;;19.67;53.41;101637.35;1476285;97;21112;-51
2022/10/23 11:07:24;;;;;;;8.53;7.72;;;;;;;19.71;53.50;101631.00;1478832;96;21588;-50
2022/10/23 11:09:51;;;;;;;9.25;8.35;;;;;;;19.78;53.36;101629.81;1499273;96;21107;-50
2022/10/23 11:12:25;;;;;;;7.85;7.15;;;;;;;19.83;52.94;101631.75;1499152;96;21108;-52
2022/10/23 11:14:51;;;;;;;9.20;8.30;;;;;;;19.86;52.86;101623.70;1489497;96;21084;-53
2022/10/23 11:17:28;;;;;;;8.55;7.50;;;;;;;19.89;52.89;101622.23;1499280;94;21168;-54
2022/10/23 11:20:11;;;;;;;8.85;7.53;;;;;;;19.91;52.87;101625.66;1499184;96;21084;-49
2022/10/23 11:23:05;;;;;;;8.35;7.45;;;;;;;19.92;52.59;101623.42;1489087;96;21151;-51
2022/10/23 11:25:49;;;;;;;7.80;7.00;;;;;;;19.93;52.46;101625.12;1466754;96;21160;-50
2022/10/23 11:28:51;;;;;;;7.67;6.87;;;;;;;19.94;52.30;101622.43;1490109;96;21111;-50
2022/10/23 11:31:24;;;;;;;8.68;7.47;;;;;;;19.95;52.44;101614.88;1481797;96;21150;-50
2022/10/23 11:34:39;;;;;;;8.15;7.35;;;;;;;19.98;52.48;101620.03;1488057;96;21152;-49
2022/10/23 11:37:07;;;;;;;7.97;7.17;;;;;;;20.01;52.62;101619.04;1487973;96;21100;-49
2022/10/23 11:39:38;;;;;;;7.95;7.15;;;;;;;20.06;52.59;101622.30;1511444;94;21072;-48
2022/10/23 11:42:11;;;;;;;8.40;7.60;;;;;;;20.07;52.35;101618.75;1486166;94;21112;-49
2022/10/23 11:44:42;;;;;;;7.85;7.15;;;;;;;20.07;52.29;101618.75;1607142;89;21064;-51
2022/10/23 11:47:32;;;;;;;8.23;7.47;;;;;;;20.07;52.37;101616.94;1611654;89;21009;-53
2022/10/23 11:50:14;;;;;;;9.53;8.58;;;;;;;20.12;52.58;101624.66;1594763;88;21581;-51
2022/10/23 11:52:58;;;;;;;9.43;7.75;;;;;;;20.15;52.82;101619.24;1600042;89;21596;-55
2022/10/23 11:55:28;;;;;;;8.65;7.53;;;;;;;20.19;52.43;101608.91;1553311;92;21117;-51